地図

経路データ

SID SEASON NUMBER BASIN SUBBASIN NAME ISO_TIME NATURE LAT LON WMO_WIND WMO_PRES WMO_AGENCY TRACK_TYPE DIST2LAND LANDFALL IFLAG USA_AGENCY USA_ATCF_ID USA_LAT USA_LON USA_RECORD USA_STATUS USA_WIND USA_PRES USA_SSHS USA_R34_NE USA_R34_SE USA_R34_SW USA_R34_NW USA_R50_NE USA_R50_SE USA_R50_SW USA_R50_NW USA_R64_NE USA_R64_SE USA_R64_SW USA_R64_NW USA_POCI USA_ROCI USA_RMW USA_EYE TOKYO_LAT TOKYO_LON TOKYO_GRADE TOKYO_WIND TOKYO_PRES TOKYO_R50_DIR TOKYO_R50_LONG TOKYO_R50_SHORT TOKYO_R30_DIR TOKYO_R30_LONG TOKYO_R30_SHORT TOKYO_LAND CMA_LAT CMA_LON CMA_CAT CMA_WIND CMA_PRES HKO_LAT HKO_LON HKO_CAT HKO_WIND HKO_PRES NEWDELHI_LAT NEWDELHI_LON NEWDELHI_GRADE NEWDELHI_WIND NEWDELHI_PRES NEWDELHI_CI NEWDELHI_DP NEWDELHI_POCI REUNION_LAT REUNION_LON REUNION_TYPE REUNION_WIND REUNION_PRES REUNION_TNUM REUNION_CI REUNION_RMW REUNION_R34_NE REUNION_R34_SE REUNION_R34_SW REUNION_R34_NW REUNION_R50_NE REUNION_R50_SE REUNION_R50_SW REUNION_R50_NW REUNION_R64_NE REUNION_R64_SE REUNION_R64_SW REUNION_R64_NW BOM_LAT BOM_LON BOM_TYPE BOM_WIND BOM_PRES BOM_TNUM BOM_CI BOM_RMW BOM_R34_NE BOM_R34_SE BOM_R34_SW BOM_R34_NW BOM_R50_NE BOM_R50_SE BOM_R50_SW BOM_R50_NW BOM_R64_NE BOM_R64_SE BOM_R64_SW BOM_R64_NW BOM_ROCI BOM_POCI BOM_EYE BOM_POS_METHOD BOM_PRES_METHOD NADI_LAT NADI_LON NADI_CAT NADI_WIND NADI_PRES WELLINGTON_LAT WELLINGTON_LON WELLINGTON_WIND WELLINGTON_PRES DS824_LAT DS824_LON DS824_STAGE DS824_WIND DS824_PRES TD9636_LAT TD9636_LON TD9636_STAGE TD9636_WIND TD9636_PRES TD9635_LAT TD9635_LON TD9635_WIND TD9635_PRES TD9635_ROCI NEUMANN_LAT NEUMANN_LON NEUMANN_CLASS NEUMANN_WIND NEUMANN_PRES MLC_LAT MLC_LON MLC_CLASS MLC_WIND MLC_PRES USA_GUST BOM_GUST BOM_GUST_PER REUNION_GUST REUNION_GUST_PER USA_SEAHGT USA_SEARAD_NE USA_SEARAD_SE USA_SEARAD_SW USA_SEARAD_NW STORM_SPEED STORM_DIR
1968345S09162 1969 123 SP MM BECKY 1968-12-10 00:00:00 TS -8.50000 162.000 main 108 88 O________OO___ jtwc_sh SH041969 -8.50000 162.000 -1 -8.50000 162.000 TC -8.50000 162.000 2 4 257
1968345S09162 1969 123 SP MM BECKY 1968-12-10 03:00:00 TS -8.54912 161.794 main 88 64 P________PP___ SH041969 -8.54003 161.783 -1 -8.54003 161.783 TC -8.56728 161.816 2 4 254
1968345S09162 1969 123 SP MM BECKY 1968-12-10 06:00:00 TS -8.61254 161.615 main 64 49 O________OP___ jtwc_sh SH041969 -8.60000 161.600 -1 -8.60000 161.600 TC -8.63761 161.645 2 3 244
1968345S09162 1969 123 SP MM BECKY 1968-12-10 09:00:00 TS -8.69970 161.486 main 49 34 P________PP___ SH041969 -8.69249 161.478 -1 -8.69249 161.478 TC -8.71413 161.502 2 3 228
1968345S09162 1969 123 SP MM BECKY 1968-12-10 12:00:00 TS -8.80000 161.400 main 34 21 O________OO___ jtwc_sh SH041969 -8.80000 161.400 -1 -8.80000 161.400 TC -8.80000 161.400 2 2 216
1968345S09162 1969 123 SP MM BECKY 1968-12-10 15:00:00 TS -8.89446 161.339 main 21 15 P________PP___ SH041969 -8.89250 161.335 -1 -8.89250 161.335 TC -8.89840 161.347 2 2 204
1968345S09162 1969 123 SP MM BECKY 1968-12-10 18:00:00 TS -9.00415 161.309 main 15 10 O________OP___ jtwc_sh SH041969 -9.00000 161.300 -1 -9.00000 161.300 TC -9.01245 161.327 2 2 0
1968345S09162 1969 123 SP MM BECKY 1968-12-10 21:00:00 TS -9.13842 161.311 main 10 0 P________PP___ SH041969 -9.13500 161.307 -1 -9.13500 161.307 TC -9.14528 161.319 2 2 164
1968345S09162 1969 123 SP MM BECKY 1968-12-11 00:00:00 TS -9.17857 161.364 main 10 0 O________OO_O_ jtwc_sh SH041969 -9.30000 161.300 -1 -9.30000 161.300 TC -9.30000 161.300 2 -8.40000 161.900 TC 35 997 1 0
1968345S09162 1969 123 SP MM BECKY 1968-12-11 03:00:00 TS -9.28137 161.285 main 0 0 P________PP_P_ SH041969 -9.49251 161.208 -1 -9.49251 161.208 TC -9.48658 161.227 2 -8.58251 161.660 TC 37 996 3 220
1968345S09162 1969 123 SP MM BECKY 1968-12-11 06:00:00 TS -9.42172 161.158 main 0 0 O________OP_O_ jtwc_sh SH041969 -9.70000 161.100 -1 -9.70000 161.100 TC -9.69253 161.143 2 -8.80000 161.400 TC 40 995 4 220
1968345S09162 1969 123 SP MM BECKY 1968-12-11 09:00:00 TS -9.58348 161.028 main 31 10 P________PP_P_ SH041969 -9.90749 161.042 -1 -9.90749 161.042 TC -9.90221 161.062 2 -9.06503 161.120 TC 40 994 4 213
1968345S09162 1969 123 SP MM BECKY 1968-12-11 12:00:00 TS -9.78000 160.920 main 10 0 O________OO_O_ jtwc_sh SH041969 -10.1000 161.000 -1 -10.1000 161.000 TC -10.1000 161.000 2 -9.30000 160.900 TC 40 994 4 209
1968345S09162 1969 123 SP MM BECKY 1968-12-11 15:00:00 TS -9.91577 160.845 main 0 0 P________PP_P_ SH041969 -10.2575 160.935 -1 -10.2575 160.935 TC -10.2156 160.958 2 -9.41497 160.812 TC 40 993 3 203
1968345S09162 1969 123 SP MM BECKY 1968-12-11 18:00:00 TS -10.0384 160.817 main 11 11 O________OP_O_ jtwc_sh SH041969 -10.4000 160.900 -1 -10.4000 160.900 TC -10.3250 160.940 2 -9.50000 160.800 TC 40 993 3 0
1968345S09162 1969 123 SP MM BECKY 1968-12-11 21:00:00 TS -10.1674 160.828 main 33 33 P________PP_P_ SH041969 -10.5125 160.928 -1 -10.5125 160.928 TC -10.4719 160.952 2 -9.59747 160.755 TC 37 993 4 166
1968345S09162 1969 123 SP MM BECKY 1968-12-12 00:00:00 TS -10.3800 160.900 main 45 39 O________OO_O_ jtwc_sh SH041969 -10.7000 161.000 -1 -10.7000 161.000 TC -10.7000 161.000 2 -9.80000 160.800 TC 35 993 6 162
1968345S09162 1969 123 SP MM BECKY 1968-12-12 03:00:00 TS -10.7547 161.023 main 59 55 P________PP_P_ SH041969 -11.0475 161.085 -1 -11.0475 161.085 TC -11.0962 161.073 2 -10.1975 161.005 TC 37 992 9 161
1968345S09162 1969 123 SP MM BECKY 1968-12-12 06:00:00 TS -11.2244 161.202 main 74 74 O________OP_O_ jtwc_sh SH041969 -11.5000 161.200 -1 -11.5000 161.200 TC -11.5700 161.182 2 -10.7000 161.300 TC 40 992 11 159
1968345S09162 1969 123 SP MM BECKY 1968-12-12 09:00:00 TS -11.7360 161.411 main 109 109 P________PP_P_ SH041969 -12.0300 161.350 -1 -12.0300 161.350 TC -12.0587 161.326 2 -11.1923 161.555 TC 42 992 11 156
1968345S09162 1969 123 SP MM BECKY 1968-12-12 12:00:00 TS -12.2200 161.660 main 157 157 O________OO_O_ jtwc_sh SH041969 -12.5000 161.500 -1 -12.5000 161.500 TC -12.5000 161.500 2 -11.7000 161.900 TC 45 992 10 150
1968345S09162 1969 123 SP MM BECKY 1968-12-12 15:00:00 TS -12.5647 161.909 main 201 201 P________PP_P_ SH041969 -12.7299 161.570 -1 -12.7299 161.570 TC -12.7455 161.597 2 -12.2000 162.405 TC 45 991 8 142
1968345S09162 1969 123 SP MM BECKY 1968-12-12 18:00:00 TS -12.8709 162.181 main 235 235 O________OP_O_ jtwc_sh SH041969 -12.9000 161.700 -1 -12.9000 161.700 TC -12.9457 161.736 2 -12.7000 163.000 TC 45 990 9 137
1968345S09162 1969 123 SP MM BECKY 1968-12-12 21:00:00 TS -13.1926 162.504 main 269 269 P________PP_P_ SH041969 -13.1472 161.946 -1 -13.1472 161.946 TC -13.1731 161.982 2 -13.1925 163.608 TC 47 989 10 134
1968345S09162 1969 123 SP MM BECKY 1968-12-13 00:00:00 TS -13.5706 162.929 main 320 320 O________OO_O_ jtwc_sh SH041969 -13.5000 162.400 -1 -13.5000 162.400 TC -13.5000 162.400 2 -13.7000 164.200 TC 50 988 13 131
1968345S09162 1969 123 SP MM BECKY 1968-12-13 03:00:00 TS -14.0523 163.504 main 332 248 P________PP_P_ SH041969 -13.9901 163.118 -1 -13.9901 163.118 TC -13.9942 163.066 2 -14.2348 164.715 TC 52 986 17 130
1968345S09162 1969 123 SP MM BECKY 1968-12-13 06:00:00 TS -14.6486 164.276 main 237 167 O________OP_O_ jtwc_sh SH041969 -14.6000 164.000 -1 -14.6000 164.000 TC -14.5944 163.905 2 -14.8000 165.200 TC 55 984 20 129
1968345S09162 1969 123 SP MM BECKY 1968-12-13 09:00:00 TS -15.2954 165.075 main 160 100 P________PP_P_ SH041969 -15.2699 164.893 -1 -15.2699 164.893 TC -15.2722 164.842 2 -15.3697 165.671 TC 57 982 21 131
1968345S09162 1969 123 SP MM BECKY 1968-12-13 12:00:00 TS -16.0000 165.900 main 100 77 O________OO_O_ jtwc_sh SH041969 -16.0000 165.800 -1 -16.0000 165.800 TC -16.0000 165.800 2 -16.0000 166.200 TC 60 980 21 133
1968345S09162 1969 123 SP MM BECKY 1968-12-13 15:00:00 TS -16.7212 166.686 main 77 69 P________PP_P_ SH041969 -16.7345 166.651 -1 -16.7345 166.651 TC -16.6960 166.593 2 -16.7198 166.848 TC 47 21 134
1968345S09162 1969 123 SP MM BECKY 1968-12-13 18:00:00 TS -17.4849 167.501 main 100 100 O________OP_O_ jtwc_sh SH041969 -17.5000 167.500 -1 -17.5000 167.500 TC -17.4395 167.403 2 -17.5000 167.600 TC 35 22 134
1968345S09162 1969 123 SP MM BECKY 1968-12-13 21:00:00 TS -18.2631 168.331 main 197 197 P________PP_P_ SH041969 -18.2764 168.342 -1 -18.2764 168.342 TC -18.2385 168.286 2 -18.2613 168.355 TC 35 24 133
1968345S09162 1969 123 SP MM BECKY 1968-12-14 00:00:00 TS -19.1000 169.300 main 321 321 O________OO_O_ jtwc_sh SH041969 -19.1000 169.300 -1 -19.1000 169.300 TC -19.1000 169.300 2 -19.1000 169.300 TC 35 27 130
1968345S09162 1969 123 SP MM BECKY 1968-12-14 03:00:00 TS -19.9799 170.504 main 438 438 P________PP_P_ SH041969 -19.9618 170.462 -1 -19.9618 170.462 TC -19.9181 170.525 2 -20.0778 170.567 TC 35 30 127
1968345S09162 1969 123 SP MM BECKY 1968-12-14 06:00:00 TS -20.9264 171.872 main 527 523 O________OP_O_ jtwc_sh SH041969 -20.9000 171.800 -1 -20.9000 171.800 TC -20.8054 171.887 2 -21.1000 172.000 TC 35 32 126
1968345S09162 1969 123 SP MM BECKY 1968-12-14 09:00:00 TS -21.8845 173.313 main 595 585 P________PP_P_ SH041969 -21.8750 173.273 -1 -21.8750 173.273 TC -21.8143 173.330 2 -21.9736 173.375 TC 35 34 127
1968345S09162 1969 123 SP MM BECKY 1968-12-14 12:00:00 TS -23.0000 174.800 main 606 606 O________OO_O_ jtwc_sh SH041969 -23.0000 174.800 -1 -23.0000 174.800 TC -23.0000 174.800 2 -23.0000 174.800 TC 35 37 132
1968345S09162 1969 123 SP MM BECKY 1968-12-14 15:00:00 TS -24.3402 176.279 main 691 691 P________PP_P_ SH041969 -24.2861 176.255 -1 -24.2861 176.255 TC -24.4011 176.258 2 -24.3876 176.351 TC 35 40 137
1968345S09162 1969 123 SP MM BECKY 1968-12-14 18:00:00 TS -25.8944 177.754 main 849 849 O________OP_O_ jtwc_sh SH041969 -25.8000 177.700 -1 -25.8000 177.700 TC -25.9775 177.715 2 -26.0000 177.900 TC 35 42 141
1968345S09162 1969 123 SP MM BECKY 1968-12-14 21:00:00 TS -27.6091 179.218 main 969 892 P________PP_P_ SH041969 -27.5408 179.176 -1 -27.5408 179.176 TC -27.6661 179.190 2 -27.6889 179.330 TC 35 44 143
1968345S09162 1969 123 SP MM BECKY 1968-12-15 00:00:00 TS -29.4000 180.700 main 890 O________OO_O_ jtwc_sh SH041969 -29.4000 -179.300 -1 -29.4000 180.700 TC -29.4000 -179.300 2 -29.4000 -179.300 TC 35 44 144

デジタル台風データ・検索

IBTrACS Databaseについて

本データベースは、米国NOAAが公開する1842年以降の世界の熱帯低気圧のベストトラックデータアーカイブInternational Best Track Archive for Climate Stewardship (IBTrACS)を、ウェブで閲覧しやすい形式に変換したものです。

最終更新日:2021-10-21